Time;durP1;ratioP1;P1;durP2;ratioP2;P2;SDS_P1;SDS_P2;PMS_P1;PMS_P2;Temp;Humidity;BMP_temperature;BMP_pressure;BME280_temperature;BME280_humidity;BME280_pressure;Samples;Min_cycle;Max_cycle;Signal;HPM_P1;HPM_P2
2022/11/14 00:01:59;;;;;;;52.42;35.20;;;7.50;99.90;;;;;;5081605;28;20533;-83
2022/11/14 00:04:25;;;;;;;52.90;37.08;;;7.50;99.90;;;;;;5084752;28;20040;-83
2022/11/14 00:06:50;;;;;;;57.00;38.08;;;7.50;99.90;;;;;;5084673;28;20072;-82
2022/11/14 00:09:16;;;;;;;55.28;38.22;;;7.50;99.90;;;;;;5074607;28;20090;-83
2022/11/14 00:11:41;;;;;;;54.35;38.08;;;7.50;99.90;;;;;;5080525;28;20496;-83
2022/11/14 00:14:09;;;;;;;56.40;38.92;;;7.50;99.90;;;;;;5083081;28;20043;-83
2022/11/14 00:16:34;;;;;;;55.92;40.03;;;7.40;99.90;;;;;;5083618;28;20044;-82
2022/11/14 00:19:00;;;;;;;61.30;41.63;;;7.50;99.90;;;;;;5056828;28;20616;-82
2022/11/14 00:21:25;;;;;;;60.08;40.75;;;7.40;99.90;;;;;;5088430;28;20080;-83
2022/11/14 00:23:51;;;;;;;58.97;42.05;;;7.40;99.90;;;;;;5085472;28;20043;-82
2022/11/14 00:26:17;;;;;;;60.88;41.47;;;7.50;99.90;;;;;;5084774;28;20060;-83
2022/11/14 00:28:42;;;;;;;60.47;42.63;;;7.50;99.90;;;;;;5087261;28;20501;-82
2022/11/14 00:31:09;;;;;;;61.78;40.65;;;7.50;99.90;;;;;;5080288;28;20043;-83
2022/11/14 00:33:34;;;;;;;60.38;41.53;;;7.50;99.90;;;;;;5115264;27;20098;-82
2022/11/14 00:36:00;;;;;;;65.28;43.88;;;7.40;99.90;;;;;;5073672;28;20063;-81
2022/11/14 00:38:26;;;;;;;60.10;41.58;;;7.40;99.90;;;;;;5084888;28;20595;-83
2022/11/14 00:40:51;;;;;;;64.88;44.90;;;7.40;99.90;;;;;;5085900;28;20036;-78
2022/11/14 00:43:17;;;;;;;61.28;42.92;;;7.40;99.90;;;;;;5077889;28;20212;-82
2022/11/14 00:45:43;;;;;;;65.13;43.88;;;7.40;99.90;;;;;;5100093;28;20042;-82
2022/11/14 00:48:09;;;;;;;62.92;44.28;;;7.30;99.90;;;;;;5085895;28;20040;-82
2022/11/14 00:50:36;;;;;;;68.80;45.30;;;7.30;99.90;;;;;;5086944;28;20044;-82
2022/11/14 00:53:02;;;;;;;62.20;42.83;;;7.30;99.90;;;;;;5117515;27;20083;-82
2022/11/14 00:55:28;;;;;;;64.57;43.75;;;7.30;99.90;;;;;;5081339;28;20086;-81
2022/11/14 00:57:54;;;;;;;62.05;43.20;;;7.30;99.90;;;;;;5078099;28;20105;-82
2022/11/14 01:00:19;;;;;;;61.92;43.78;;;7.20;99.90;;;;;;5085390;28;20086;-81
2022/11/14 01:02:45;;;;;;;68.07;44.70;;;7.20;99.90;;;;;;5082640;28;20059;-82
2022/11/14 01:05:10;;;;;;;69.07;45.92;;;7.20;99.90;;;;;;5082208;28;20071;-81
2022/11/14 01:07:36;;;;;;;63.35;43.97;;;7.20;99.90;;;;;;5081812;28;20071;-82
2022/11/14 01:10:02;;;;;;;61.25;44.10;;;7.20;99.90;;;;;;5083887;28;20043;-81
2022/11/14 01:12:28;;;;;;;61.53;43.30;;;7.20;99.90;;;;;;5082332;28;20036;-82
2022/11/14 01:14:54;;;;;;;62.47;44.08;;;7.20;99.90;;;;;;5077104;28;20191;-81
2022/11/14 01:17:19;;;;;;;64.47;44.35;;;7.20;99.90;;;;;;5077176;28;20088;-82
2022/11/14 01:19:45;;;;;;;66.90;46.10;;;7.20;99.90;;;;;;5082088;28;20653;-81
2022/11/14 01:22:11;;;;;;;64.32;42.67;;;7.10;99.90;;;;;;5081861;28;20181;-81
2022/11/14 01:24:36;;;;;;;61.60;42.22;;;7.10;99.90;;;;;;5077181;28;20407;-82
2022/11/14 01:27:02;;;;;;;60.60;45.13;;;7.10;99.90;;;;;;5083644;28;20047;-82
2022/11/14 01:29:28;;;;;;;68.90;45.83;;;7.10;99.90;;;;;;5084701;28;20059;-81
2022/11/14 01:31:54;;;;;;;72.78;49.75;;;7.10;99.90;;;;;;5085629;28;20032;-81
2022/11/14 01:34:20;;;;;;;67.63;46.08;;;7.10;99.90;;;;;;5079899;28;20043;-81
2022/11/14 01:36:46;;;;;;;70.22;47.80;;;7.10;99.90;;;;;;5085963;28;20052;-82
2022/11/14 01:39:11;;;;;;;65.93;45.08;;;7.10;99.90;;;;;;5074208;28;20051;-81
2022/11/14 01:41:37;;;;;;;69.57;47.05;;;7.10;99.90;;;;;;5079214;28;20039;-81
2022/11/14 01:44:10;;;;;;;66.68;45.55;;;7.10;99.90;;;;;;5078085;28;20042;-82
2022/11/14 01:46:39;;;;;;;68.65;45.40;;;7.10;99.90;;;;;;5078649;28;20044;-82
2022/11/14 01:49:08;;;;;;;68.50;46.58;;;7.10;99.90;;;;;;5077505;28;20044;-82
2022/11/14 01:51:39;;;;;;;66.05;43.35;;;7.10;99.90;;;;;;5080256;28;20386;-81
2022/11/14 01:54:22;;;;;;;67.45;44.80;;;7.10;99.90;;;;;;5118012;27;20054;-82
2022/11/14 01:56:53;;;;;;;69.30;45.05;;;7.00;99.90;;;;;;5115910;27;20054;-82
2022/11/14 01:59:23;;;;;;;66.10;45.28;;;7.00;99.90;;;;;;5083958;28;20044;-82
2022/11/14 02:01:51;;;;;;;67.78;44.60;;;7.00;99.90;;;;;;5084201;28;20039;-82
2022/11/14 02:04:23;;;;;;;72.75;46.90;;;7.00;99.90;;;;;;5070606;28;20040;-82
2022/11/14 02:06:50;;;;;;;67.88;45.92;;;7.00;99.90;;;;;;5115740;27;20040;-83
2022/11/14 02:09:16;;;;;;;;;;;7.00;99.90;;;;;;5080789;28;20770;-82
2022/11/14 02:11:44;;;;;;;70.35;43.78;;;7.00;99.90;;;;;;5077988;28;19967;-82
2022/11/14 02:14:10;;;;;;;72.25;45.78;;;7.00;99.90;;;;;;5076585;28;20052;-82
2022/11/14 02:16:38;;;;;;;69.28;45.88;;;7.00;99.90;;;;;;5086269;28;20044;-81
2022/11/14 02:19:04;;;;;;;72.93;47.63;;;7.00;99.90;;;;;;5076200;28;20048;-82
2022/11/14 02:21:30;;;;;;;76.18;47.38;;;7.00;99.90;;;;;;5082724;28;20087;-82
2022/11/14 02:23:56;;;;;;;69.72;45.35;;;7.00;99.90;;;;;;5082354;28;20471;-82
2022/11/14 02:26:22;;;;;;;74.25;48.67;;;7.00;99.90;;;;;;5074368;28;20474;-82
2022/11/14 02:28:48;;;;;;;75.85;48.72;;;7.00;99.90;;;;;;5115445;27;20050;-82
2022/11/14 02:31:15;;;;;;;75.80;47.67;;;7.00;99.90;;;;;;5084617;28;20040;-82
2022/11/14 02:33:41;;;;;;;77.28;48.63;;;7.00;99.90;;;;;;5117337;27;20105;-82
2022/11/14 02:36:07;;;;;;;71.30;46.90;;;7.00;99.90;;;;;;5088472;28;20508;-82
2022/11/14 02:38:32;;;;;;;75.55;48.08;;;7.00;99.90;;;;;;5071511;28;20658;-82
2022/11/14 02:41:00;;;;;;;71.68;47.60;;;7.00;99.90;;;;;;5077993;28;20136;-81
2022/11/14 02:43:25;;;;;;;68.25;46.55;;;7.00;99.90;;;;;;5116349;27;20044;-81
2022/11/14 02:45:51;;;;;;;73.30;46.90;;;6.90;99.90;;;;;;5073938;28;20048;-82
2022/11/14 02:48:16;;;;;;;68.82;46.30;;;7.00;99.90;;;;;;5086877;28;20059;-82
2022/11/14 02:50:42;;;;;;;74.07;47.22;;;7.00;99.90;;;;;;5083247;28;20055;-82
2022/11/14 02:53:08;;;;;;;74.13;45.30;;;7.00;99.90;;;;;;5117590;27;20052;-82
2022/11/14 02:55:34;;;;;;;66.50;43.80;;;7.00;99.90;;;;;;5087240;28;20075;-82
2022/11/14 02:57:59;;;;;;;73.35;46.22;;;7.00;99.90;;;;;;5074411;28;20051;-82
2022/11/14 03:00:25;;;;;;;70.53;46.30;;;7.00;99.90;;;;;;5088126;28;20040;-82
2022/11/14 03:02:52;;;;;;;67.72;44.65;;;7.00;99.90;;;;;;5085742;28;20051;-82
2022/11/14 03:05:18;;;;;;;69.63;45.72;;;7.00;99.90;;;;;;5090308;28;20048;-81
2022/11/14 03:07:44;;;;;;;71.72;46.63;;;7.00;99.90;;;;;;5112975;27;20446;-82
2022/11/14 03:10:10;;;;;;;72.72;45.70;;;7.00;99.90;;;;;;5086497;28;20052;-81
2022/11/14 03:12:36;;;;;;;70.32;47.92;;;7.00;99.90;;;;;;5081551;28;20497;-81
2022/11/14 03:15:04;;;;;;;70.53;44.40;;;7.00;99.90;;;;;;5086779;28;20036;-82
2022/11/14 03:17:30;;;;;;;;;;;7.00;99.90;;;;;;5122118;27;20039;-82
2022/11/14 03:19:56;;;;;;;68.45;44.70;;;7.00;99.90;;;;;;5087072;28;20102;-82
2022/11/14 03:22:22;;;;;;;69.57;47.05;;;7.00;99.90;;;;;;5081846;28;20048;-81
2022/11/14 03:24:48;;;;;;;72.68;47.30;;;7.00;99.90;;;;;;5081372;28;20457;-82
2022/11/14 03:27:13;;;;;;;70.82;45.00;;;7.00;99.90;;;;;;5088003;28;20047;-81
2022/11/14 03:29:39;;;;;;;72.72;46.58;;;7.00;99.90;;;;;;5072927;28;20040;-82
2022/11/14 03:32:04;;;;;;;69.18;47.08;;;7.00;99.90;;;;;;5073140;28;20067;-81
2022/11/14 03:34:30;;;;;;;74.60;47.80;;;7.00;99.90;;;;;;5081209;28;20698;-81
2022/11/14 03:36:56;;;;;;;68.63;43.90;;;7.00;99.90;;;;;;5087485;28;20036;-82
2022/11/14 03:39:21;;;;;;;70.13;45.58;;;7.00;99.90;;;;;;5072815;28;20040;-82
2022/11/14 03:41:47;;;;;;;71.32;47.38;;;7.00;99.90;;;;;;5080420;28;20046;-81
2022/11/14 03:44:13;;;;;;;70.15;47.05;;;7.00;99.90;;;;;;5072760;28;20040;-82
2022/11/14 03:46:38;;;;;;;72.78;48.30;;;7.00;99.90;;;;;;5085123;28;20044;-82
2022/11/14 03:49:04;;;;;;;71.05;45.30;;;7.00;99.90;;;;;;5083858;28;20043;-81
2022/11/14 03:51:30;;;;;;;67.35;46.17;;;7.00;99.90;;;;;;5087674;28;20472;-82
2022/11/14 03:53:56;;;;;;;68.05;45.13;;;7.00;99.90;;;;;;5078900;28;20052;-81
2022/11/14 03:56:22;;;;;;;68.20;46.95;;;7.00;99.90;;;;;;5084943;28;20669;-82
2022/11/14 03:58:47;;;;;;;69.30;45.13;;;7.10;99.90;;;;;;5082172;28;20040;-81
2022/11/14 04:01:13;;;;;;;68.53;46.30;;;7.10;99.90;;;;;;5108291;27;20482;-82
2022/11/14 04:03:39;;;;;;;68.32;46.17;;;7.10;99.90;;;;;;5078206;28;20066;-82
2022/11/14 04:06:05;;;;;;;70.90;47.55;;;7.10;99.90;;;;;;5084665;28;20048;-81
2022/11/14 04:08:30;;;;;;;65.03;43.75;;;7.10;99.90;;;;;;5078791;28;20048;-82
2022/11/14 04:10:56;;;;;;;68.35;46.30;;;7.10;99.90;;;;;;5085798;28;20044;-81
2022/11/14 04:13:22;;;;;;;68.55;48.47;;;7.00;99.90;;;;;;5069972;28;20037;-82
2022/11/14 04:15:53;;;;;;;69.40;45.08;;;7.00;99.90;;;;;;5086762;28;20082;-80
2022/11/14 04:18:19;;;;;;;68.53;45.28;;;7.00;99.90;;;;;;5078451;28;20830;-82
2022/11/14 04:20:45;;;;;;;71.90;45.47;;;7.00;99.90;;;;;;5086494;28;20036;-82
2022/11/14 04:23:10;;;;;;;65.93;44.78;;;7.00;99.90;;;;;;5079438;28;20047;-82
2022/11/14 04:25:36;;;;;;;67.97;46.72;;;6.90;99.90;;;;;;5084200;28;20588;-82
2022/11/14 04:28:01;;;;;;;71.57;46.65;;;6.90;99.90;;;;;;5080148;28;20060;-82
2022/11/14 04:30:27;;;;;;;70.35;46.25;;;6.90;99.90;;;;;;5081399;28;20487;-82
2022/11/14 04:32:53;;;;;;;67.50;45.85;;;6.90;99.90;;;;;;5109336;27;20043;-82
2022/11/14 04:35:18;;;;;;;70.30;44.67;;;6.90;99.90;;;;;;5080327;28;20312;-82
2022/11/14 04:37:45;;;;;;;73.90;47.97;;;6.90;99.90;;;;;;5080945;28;20347;-81
2022/11/14 04:40:11;;;;;;;68.22;47.17;;;6.90;99.90;;;;;;5084770;28;20047;-82
2022/11/14 04:42:37;;;;;;;72.28;45.33;;;6.90;99.90;;;;;;5083958;28;20082;-82
2022/11/14 04:45:03;;;;;;;71.03;46.47;;;6.90;99.90;;;;;;5078045;28;20044;-81
2022/11/14 04:47:29;;;;;;;69.07;46.55;;;6.90;99.90;;;;;;5077405;28;20039;-81
2022/11/14 04:49:55;;;;;;;77.00;49.03;;;6.90;99.90;;;;;;5081898;28;20041;-82
2022/11/14 04:52:20;;;;;;;69.80;46.42;;;6.90;99.90;;;;;;5078702;28;20123;-81
2022/11/14 04:54:46;;;;;;;72.85;47.08;;;6.90;99.90;;;;;;5076667;28;20392;-82
2022/11/14 04:57:11;;;;;;;74.85;46.35;;;6.90;99.90;;;;;;5085979;28;20024;-81
2022/11/14 04:59:37;;;;;;;74.03;47.15;;;6.90;99.90;;;;;;5086630;28;20836;-82
2022/11/14 05:02:02;;;;;;;76.82;46.35;;;6.90;99.90;;;;;;5074223;28;20223;-82
2022/11/14 05:04:28;;;;;;;76.47;47.15;;;6.90;99.90;;;;;;5086744;28;20035;-81
2022/11/14 05:06:54;;;;;;;74.55;46.88;;;6.90;99.90;;;;;;5083128;28;20079;-81
2022/11/14 05:09:19;;;;;;;76.05;47.53;;;6.90;99.90;;;;;;5075173;28;20044;-82
2022/11/14 05:11:45;;;;;;;79.32;49.58;;;6.90;99.90;;;;;;5070159;28;20052;-81
2022/11/14 05:14:11;;;;;;;76.93;48.80;;;6.90;99.90;;;;;;5114463;27;20425;-80
2022/11/14 05:16:36;;;;;;;78.72;47.13;;;6.80;99.90;;;;;;5083654;28;20062;-81
2022/11/14 05:19:02;;;;;;;77.50;46.03;;;6.90;99.90;;;;;;5078250;28;20094;-81
2022/11/14 05:21:27;;;;;;;80.80;48.17;;;6.90;99.90;;;;;;5076852;28;20036;-81
2022/11/14 05:23:53;;;;;;;76.00;47.83;;;6.90;99.90;;;;;;5080436;28;20638;-81
2022/11/14 05:26:19;;;;;;;74.80;46.22;;;6.90;99.90;;;;;;5080274;28;20035;-81
2022/11/14 05:28:44;;;;;;;76.50;45.67;;;6.80;99.90;;;;;;5081406;28;20040;-81
2022/11/14 05:31:16;;;;;;;72.38;45.70;;;6.80;99.90;;;;;;5080882;28;20475;-81
2022/11/14 05:33:43;;;;;;;77.50;47.17;;;6.80;99.90;;;;;;5072039;28;20036;-81
2022/11/14 05:36:12;;;;;;;76.30;46.15;;;6.80;99.90;;;;;;5084735;28;20100;-81
2022/11/14 05:38:38;;;;;;;77.63;48.30;;;6.70;99.90;;;;;;5083037;28;20032;-81
2022/11/14 05:41:13;;;;;;;80.75;47.30;;;6.70;99.90;;;;;;5085749;28;20932;-81
2022/11/14 05:43:41;;;;;;;80.75;47.60;;;6.80;99.90;;;;;;5110872;27;20040;-81
2022/11/14 05:46:10;;;;;;;77.63;47.90;;;6.80;99.90;;;;;;5076106;28;20127;-81
2022/11/14 05:48:36;;;;;;;75.15;45.38;;;6.80;99.90;;;;;;5081351;28;20148;-81
2022/11/14 05:51:04;;;;;;;78.35;44.25;;;6.80;99.90;;;;;;5080899;28;20398;-81
2022/11/14 05:53:32;;;;;;;76.95;45.33;;;6.70;99.90;;;;;;5117000;27;20052;-81
2022/11/14 05:56:06;;;;;;;80.60;46.80;;;6.70;99.90;;;;;;5116708;27;20097;-81
2022/11/14 05:58:33;;;;;;;77.70;45.53;;;6.70;99.90;;;;;;5074739;28;20051;-81
2022/11/14 06:01:18;;;;;;;76.78;46.88;;;6.70;99.90;;;;;;5120134;27;20050;-81
2022/11/14 06:03:46;;;;;;;78.10;44.95;;;6.70;99.90;;;;;;5078437;28;20491;-81
2022/11/14 06:06:15;;;;;;;77.47;46.33;;;6.70;99.90;;;;;;5114970;27;20043;-82
2022/11/14 06:08:41;;;;;;;77.97;45.83;;;6.70;99.90;;;;;;5083183;28;20044;-81
2022/11/14 06:11:09;;;;;;;78.75;46.63;;;6.70;99.90;;;;;;5078921;28;20119;-81
2022/11/14 06:13:35;;;;;;;78.20;45.92;;;6.70;99.90;;;;;;5075295;28;20047;-81
2022/11/14 06:16:03;;;;;;;74.35;44.65;;;6.60;99.90;;;;;;5081296;28;20510;-81
2022/11/14 06:18:30;;;;;;;80.30;47.38;;;6.60;99.90;;;;;;5086908;28;20047;-80
2022/11/14 06:21:25;;;;;;;76.95;44.45;;;6.60;99.90;;;;;;5085515;28;20141;-81
2022/11/14 06:23:51;;;;;;;78.80;45.35;;;6.60;99.90;;;;;;5101423;28;20056;-81
2022/11/14 06:26:30;;;;;;;74.30;44.13;;;6.50;99.90;;;;;;5076102;28;20050;-81
2022/11/14 06:28:57;;;;;;;82.05;46.38;;;6.50;99.90;;;;;;5074584;28;20072;-80
2022/11/14 06:31:23;;;;;;;83.17;45.60;;;6.50;99.90;;;;;;5074363;28;20033;-80
2022/11/14 06:33:49;;;;;;;79.53;46.92;;;6.50;99.90;;;;;;5077113;28;20295;-80
2022/11/14 06:36:15;;;;;;;76.18;45.05;;;6.50;99.90;;;;;;5078143;28;20044;-80
2022/11/14 06:38:42;;;;;;;82.25;47.25;;;6.50;99.90;;;;;;5077445;28;20135;-80
2022/11/14 06:41:13;;;;;;;78.47;45.55;;;6.40;99.90;;;;;;5076276;28;20737;-80
2022/11/14 06:43:41;;;;;;;75.63;45.55;;;6.40;99.90;;;;;;5077926;28;20052;-80
2022/11/14 06:46:09;;;;;;;78.35;46.22;;;6.40;99.90;;;;;;5085137;28;20040;-83
2022/11/14 06:48:35;;;;;;;75.40;45.05;;;6.40;99.90;;;;;;5085040;28;20055;-82
2022/11/14 06:51:02;;;;;;;75.28;44.13;;;6.40;99.90;;;;;;5080502;28;20053;-82
2022/11/14 06:53:31;;;;;;;82.55;46.65;;;6.40;99.90;;;;;;5073318;28;20074;-82
2022/11/14 06:56:10;;;;;;;79.18;47.00;;;6.40;99.90;;;;;;5077975;28;20067;-82
2022/11/14 06:58:38;;;;;;;76.95;46.05;;;6.40;99.90;;;;;;5084398;28;20122;-81
2022/11/14 07:01:26;;;;;;;79.38;48.38;;;6.40;99.90;;;;;;5079651;28;20044;-82
2022/11/14 07:03:52;;;;;;;82.90;47.90;;;6.40;99.90;;;;;;5067491;28;20059;-82
2022/11/14 07:06:21;;;;;;;86.85;48.65;;;6.40;99.90;;;;;;5076923;28;20394;-81
2022/11/14 07:08:47;;;;;;;81.65;49.40;;;6.40;99.90;;;;;;5075430;28;20081;-82
2022/11/14 07:11:21;;;;;;;78.90;48.53;;;6.40;99.90;;;;;;5116240;28;20044;-80
2022/11/14 07:13:48;;;;;;;85.32;49.40;;;6.40;99.90;;;;;;5116347;27;20051;-86
2022/11/14 07:16:14;;;;;;;80.82;46.70;;;6.40;99.90;;;;;;5112539;27;20114;-86
2022/11/14 07:18:40;;;;;;;81.57;47.28;;;6.50;99.90;;;;;;5086658;28;20491;-86
2022/11/14 07:21:06;;;;;;;78.75;47.15;;;6.50;99.90;;;;;;5086028;28;20044;-86
2022/11/14 07:23:34;;;;;;;77.70;48.00;;;6.50;99.90;;;;;;5079654;28;20130;-86
2022/11/14 07:26:01;;;;;;;79.25;47.53;;;6.50;99.90;;;;;;5117468;27;20036;-86
2022/11/14 07:28:27;;;;;;;73.53;45.22;;;6.50;99.90;;;;;;5111628;27;20052;-86
2022/11/14 07:30:52;;;;;;;79.22;45.72;;;6.50;99.90;;;;;;5079868;28;20098;-86
2022/11/14 07:33:18;;;;;;;75.30;45.95;;;6.50;99.90;;;;;;5082939;28;20557;-86
2022/11/14 07:35:44;;;;;;;73.25;44.10;;;6.50;99.90;;;;;;5081780;28;20440;-87
2022/11/14 07:38:10;;;;;;;76.10;46.40;;;6.50;99.90;;;;;;5084613;28;20032;-86
2022/11/14 07:40:36;;;;;;;72.95;44.35;;;6.50;99.90;;;;;;5086776;28;20406;-86
2022/11/14 07:43:02;;;;;;;73.53;44.40;;;6.50;99.90;;;;;;5084791;28;20046;-86
2022/11/14 07:45:28;;;;;;;71.00;44.03;;;6.50;99.90;;;;;;5080053;28;20089;-87
2022/11/14 07:48:01;;;;;;;74.65;43.83;;;6.50;99.90;;;;;;5082065;28;20044;-86
2022/11/14 07:50:28;;;;;;;78.53;45.72;;;6.40;99.90;;;;;;5077778;28;20143;-86
2022/11/14 07:52:54;;;;;;;;;;;6.40;99.90;;;;;;5085362;28;20133;-86
2022/11/14 07:55:20;;;;;;;69.10;43.45;;;6.50;99.90;;;;;;5083289;28;19959;-86
2022/11/14 07:57:50;;;;;;;79.55;45.92;;;6.50;99.90;;;;;;5085030;28;20509;-86
2022/11/14 08:00:16;;;;;;;75.13;45.80;;;6.50;99.90;;;;;;5084778;28;20587;-86
2022/11/14 08:02:42;;;;;;;79.55;48.03;;;6.50;99.90;;;;;;5078804;28;20036;-87
2022/11/14 08:05:08;;;;;;;76.93;45.83;;;6.60;99.90;;;;;;5076906;28;20633;-82
2022/11/14 08:07:34;;;;;;;75.30;45.40;;;6.60;99.90;;;;;;5083092;28;20040;-83
2022/11/14 08:09:59;;;;;;;77.40;44.78;;;6.60;99.90;;;;;;5075329;28;20048;-86
2022/11/14 08:12:25;;;;;;;73.47;46.95;;;6.70;99.90;;;;;;5069762;28;20388;-79
2022/11/14 08:14:50;;;;;;;74.72;46.17;;;6.70;99.90;;;;;;5085839;28;20127;-88
2022/11/14 08:17:16;;;;;;;74.53;45.05;;;6.70;99.90;;;;;;5085528;28;20525;-82
2022/11/14 08:19:42;;;;;;;73.88;44.15;;;6.70;99.90;;;;;;5080359;28;20187;-82
2022/11/14 08:22:07;;;;;;;72.45;42.92;;;6.70;99.90;;;;;;5079900;28;20040;-88
2022/11/14 08:24:33;;;;;;;68.18;43.33;;;6.70;99.90;;;;;;5085735;28;20048;-87
2022/11/14 08:26:58;;;;;;;73.72;45.30;;;6.60;99.90;;;;;;5087077;28;20040;-86
2022/11/14 08:29:24;;;;;;;72.57;45.80;;;6.70;99.90;;;;;;5078222;28;20095;-84
2022/11/14 08:31:50;;;;;;;78.82;46.15;;;6.70;99.90;;;;;;5081716;28;20662;-89
2022/11/14 08:34:15;;;;;;;74.30;43.97;;;6.70;99.90;;;;;;5084565;28;20029;-86
2022/11/14 08:36:41;;;;;;;77.93;46.22;;;6.80;99.90;;;;;;5082575;28;20039;-89
2022/11/14 08:39:06;;;;;;;73.40;43.63;;;6.80;99.90;;;;;;5086561;28;20120;-87
2022/11/14 08:41:32;;;;;;;73.30;43.33;;;6.80;99.90;;;;;;5087315;28;20564;-89
2022/11/14 08:43:58;;;;;;;72.57;45.63;;;6.80;99.90;;;;;;5090530;28;20067;-91
2022/11/14 08:46:23;;;;;;;73.00;45.15;;;6.70;99.90;;;;;;5083170;28;20131;-85
2022/11/14 08:48:49;;;;;;;73.68;45.75;;;6.80;99.90;;;;;;5078709;28;20054;-85
2022/11/14 08:51:15;;;;;;;76.45;46.45;;;6.80;99.90;;;;;;5081885;28;20044;-83
2022/11/14 08:53:40;;;;;;;78.30;47.80;;;6.80;99.90;;;;;;5086434;28;20059;-79
2022/11/14 08:56:07;;;;;;;74.57;43.92;;;6.80;99.90;;;;;;5115070;27;20044;-80
2022/11/14 08:58:33;;;;;;;74.70;46.22;;;6.80;99.90;;;;;;5101661;28;20119;-78
2022/11/14 09:01:04;;;;;;;71.60;43.15;;;6.80;99.90;;;;;;5070716;28;20043;-82
2022/11/14 09:03:30;;;;;;;75.93;45.55;;;6.80;99.90;;;;;;5070730;28;20036;-82
2022/11/14 09:05:56;;;;;;;74.03;44.72;;;6.80;99.90;;;;;;5081054;28;20036;-85
2022/11/14 09:08:22;;;;;;;72.85;47.03;;;6.80;99.90;;;;;;5079248;28;20048;-86
2022/11/14 09:10:48;;;;;;;72.60;44.30;;;6.80;99.90;;;;;;5112827;27;20097;-88
2022/11/14 09:13:14;;;;;;;71.45;43.42;;;6.80;99.90;;;;;;5086945;28;20497;-90
2022/11/14 09:15:39;;;;;;;74.05;46.70;;;6.90;99.90;;;;;;5087178;28;20040;-88
2022/11/14 09:18:05;;;;;;;76.45;46.13;;;6.90;99.90;;;;;;5084163;28;20040;-87
2022/11/14 09:20:31;;;;;;;69.65;42.92;;;6.90;99.90;;;;;;5116288;27;20080;-86
2022/11/14 09:23:01;;;;;;;67.32;43.45;;;7.00;99.90;;;;;;5076668;28;20048;-84
2022/11/14 09:25:28;;;;;;;69.38;45.38;;;7.10;99.90;;;;;;5113097;27;20052;-82
2022/11/14 09:27:54;;;;;;;66.75;45.55;;;7.10;99.90;;;;;;5080955;28;20093;-80
2022/11/14 09:30:21;;;;;;;66.35;43.90;;;7.10;99.90;;;;;;5085796;28;20048;-80
2022/11/14 09:32:47;;;;;;;64.65;43.42;;;7.10;99.90;;;;;;5086805;28;20044;-80
2022/11/14 09:35:13;;;;;;;68.82;42.97;;;7.20;99.90;;;;;;5086926;28;20055;-80
2022/11/14 09:37:39;;;;;;;62.03;43.25;;;7.20;99.90;;;;;;5080505;28;20086;-83
2022/11/14 09:40:05;;;;;;;66.88;46.58;;;7.10;99.90;;;;;;5086632;28;20032;-76
2022/11/14 09:43:09;;;;;;;65.53;43.47;;;7.20;99.90;;;;;;5084436;28;20098;-79
2022/11/14 09:45:39;;;;;;;61.70;41.40;;;7.10;99.90;;;;;;5077640;28;20044;-84
2022/11/14 09:48:15;;;;;;;60.58;42.40;;;7.10;99.90;;;;;;5073577;28;20039;-79
2022/11/14 09:50:50;;;;;;;60.30;41.88;;;7.20;99.90;;;;;;5086423;28;20040;-78
2022/11/14 09:53:38;;;;;;;58.58;41.65;;;7.20;99.90;;;;;;5073135;28;20047;-82
2022/11/14 09:56:05;;;;;;;56.10;39.10;;;7.20;99.90;;;;;;5085705;28;20131;-83
2022/11/14 09:58:31;;;;;;;59.28;38.55;;;7.20;99.90;;;;;;5083983;28;20124;-81
2022/11/14 10:01:16;;;;;;;59.65;39.97;;;7.30;99.90;;;;;;5086968;28;20456;-82
2022/11/14 10:03:59;;;;;;;58.75;39.85;;;7.40;99.90;;;;;;5085535;28;20036;-78
2022/11/14 10:06:34;;;;;;;55.70;39.53;;;7.50;99.90;;;;;;5073941;28;20040;-82
2022/11/14 10:09:18;;;;;;;52.55;38.88;;;7.60;99.90;;;;;;5077661;28;20052;-82
2022/11/14 10:12:03;;;;;;;53.67;38.63;;;7.60;99.90;;;;;;5077750;28;20119;-81
2022/11/14 10:14:56;;;;;;;53.15;36.78;;;7.60;99.90;;;;;;5081781;28;20049;-81
2022/11/14 10:17:40;;;;;;;52.05;38.50;;;7.70;99.90;;;;;;5086391;28;20101;-84
2022/11/14 10:20:31;;;;;;;52.78;37.47;;;7.70;99.90;;;;;;5075948;28;20031;-83
2022/11/14 10:23:05;;;;;;;50.70;36.90;;;7.70;99.90;;;;;;5082592;28;20538;-83
2022/11/14 10:25:45;;;;;;;50.35;37.60;;;7.70;99.90;;;;;;5065262;28;20048;-83
2022/11/14 10:28:16;;;;;;;51.67;37.30;;;7.80;99.90;;;;;;5083097;28;20044;-82
2022/11/14 10:31:12;;;;;;;48.08;34.50;;;7.80;99.90;;;;;;5085069;28;20048;-82
2022/11/14 10:33:49;;;;;;;49.92;35.97;;;7.80;99.90;;;;;;5073014;28;20044;-78
2022/11/14 10:36:23;;;;;;;50.58;35.10;;;7.80;99.90;;;;;;5080130;28;20056;-79
2022/11/14 10:39:12;;;;;;;49.35;33.88;;;7.90;99.90;;;;;;5068943;28;20542;-80
2022/11/14 10:41:39;;;;;;;46.50;32.80;;;7.90;99.90;;;;;;5083230;28;20043;-79
2022/11/14 10:44:14;;;;;;;47.70;34.15;;;7.90;99.90;;;;;;5085689;28;20044;-79
2022/11/14 10:47:03;;;;;;;43.35;31.65;;;8.00;99.90;;;;;;5086504;28;20106;-80
2022/11/14 10:49:34;;;;;;;44.33;31.60;;;8.00;99.90;;;;;;5124333;27;20076;-80
2022/11/14 10:52:05;;;;;;;43.42;31.60;;;8.10;99.90;;;;;;5123833;27;20111;-79
2022/11/14 10:54:39;;;;;;;40.03;31.38;;;8.10;99.90;;;;;;5120954;27;20060;-79
2022/11/14 10:57:17;;;;;;;43.13;33.00;;;8.20;99.90;;;;;;5087994;28;20431;-79
2022/11/14 10:59:43;;;;;;;42.58;31.92;;;8.20;99.90;;;;;;5120053;27;20127;-79
2022/11/14 11:02:09;;;;;;;40.47;32.20;;;8.30;99.90;;;;;;5087508;28;20530;-75
2022/11/14 11:04:36;;;;;;;42.55;31.10;;;8.30;99.90;;;;;;5077126;28;20040;-83
2022/11/14 11:07:08;;;;;;;41.20;30.58;;;8.40;99.90;;;;;;5083472;28;20055;-81
2022/11/14 11:12:40;;;;;;;41.50;32.22;;;8.40;99.90;;;;;;5078019;28;20075;-82
2022/11/14 11:15:20;;;;;;;43.47;32.50;;;8.50;99.90;;;;;;5086047;28;20036;-80
2022/11/14 11:17:56;;;;;;;40.85;31.77;;;8.50;99.90;;;;;;5089301;28;20376;-84
2022/11/14 11:20:38;;;;;;;41.67;31.40;;;8.60;99.90;;;;;;5078941;28;20037;-83
2022/11/14 11:23:09;;;;;;;38.08;29.92;;;8.60;99.90;;;;;;5080528;28;20710;-82
2022/11/14 11:25:36;;;;;;;40.15;31.02;;;8.70;99.90;;;;;;5084108;28;20044;-82
2022/11/14 11:28:03;;;;;;;40.03;32.10;;;8.70;99.90;;;;;;5079809;28;20396;-78
2022/11/14 11:30:29;;;;;;;43.08;33.65;;;8.70;99.90;;;;;;5085613;28;20043;-86
2022/11/14 11:32:54;;;;;;;40.97;31.50;;;8.70;99.90;;;;;;5083520;28;20044;-72
2022/11/14 11:35:20;;;;;;;39.20;30.30;;;8.70;99.90;;;;;;5081809;28;20051;-73
2022/11/14 11:37:54;;;;;;;37.80;31.10;;;8.80;99.90;;;;;;5077391;28;20097;-77
2022/11/14 11:40:27;;;;;;;40.10;29.45;;;8.90;99.90;;;;;;5080369;28;20127;-76
2022/11/14 11:43:09;;;;;;;36.88;30.50;;;8.90;99.90;;;;;;5079533;28;20127;-80
2022/11/14 11:45:36;;;;;;;39.63;29.58;;;8.90;99.90;;;;;;5121702;27;20552;-76
2022/11/14 11:48:17;;;;;;;38.05;31.40;;;8.90;99.90;;;;;;5081885;28;20081;-74
2022/11/14 11:50:43;;;;;;;40.53;31.50;;;9.00;99.90;;;;;;5115674;27;20135;-82
2022/11/14 11:53:28;;;;;;;37.92;31.23;;;9.00;99.90;;;;;;5084854;28;20135;-86
2022/11/14 11:56:05;;;;;;;35.67;29.15;;;9.00;99.90;;;;;;5088670;28;20051;-82
2022/11/14 11:58:39;;;;;;;33.58;27.30;;;9.10;99.90;;;;;;5074549;28;20059;-81
2022/11/14 12:01:04;;;;;;;31.40;26.85;;;9.20;99.90;;;;;;5080122;28;20060;-84
2022/11/14 12:03:30;;;;;;;35.20;27.58;;;9.20;99.90;;;;;;5083207;28;20035;-83
2022/11/14 12:06:24;;;;;;;33.00;26.35;;;9.30;99.90;;;;;;5086978;28;20052;-83
2022/11/14 12:09:13;;;;;;;31.98;26.85;;;9.30;99.90;;;;;;5077255;28;20055;-84
2022/11/14 12:11:44;;;;;;;32.10;26.30;;;9.30;99.90;;;;;;5088401;28;20494;-83
2022/11/14 12:14:41;;;;;;;31.73;27.42;;;9.40;99.90;;;;;;5113738;27;20588;-85
2022/11/14 12:17:44;;;;;;;32.90;26.85;;;9.40;99.90;;;;;;5087298;28;20044;-89
2022/11/14 12:20:15;;;;;;;32.92;25.90;;;9.40;99.90;;;;;;5084681;28;20045;-80
2022/11/14 12:22:58;;;;;;;32.42;27.27;;;9.40;99.90;;;;;;5083703;28;20047;-86
2022/11/14 12:25:43;;;;;;;31.63;26.55;;;9.40;99.90;;;;;;5089138;28;20426;-86
2022/11/14 12:28:30;;;;;;;29.85;26.02;;;9.40;99.90;;;;;;5082797;28;20043;-77
2022/11/14 12:31:00;;;;;;;30.52;25.30;;;9.40;99.90;;;;;;5081639;28;20102;-82
2022/11/14 12:33:33;;;;;;;32.50;27.20;;;9.50;99.90;;;;;;5073838;28;20049;-76
2022/11/14 12:36:02;;;;;;;32.30;27.02;;;9.50;99.90;;;;;;5083956;28;20032;-85
2022/11/14 12:38:41;;;;;;;31.42;27.05;;;9.50;99.90;;;;;;5082106;28;20094;-87
2022/11/14 12:41:08;;;;;;;30.88;25.77;;;9.50;99.90;;;;;;5079780;28;20077;-87
2022/11/14 12:43:37;;;;;;;28.77;25.67;;;9.60;99.90;;;;;;5078338;28;20051;-83
2022/11/14 12:46:08;;;;;;;29.90;26.58;;;9.60;99.90;;;;;;5077486;28;20529;-79
2022/11/14 12:48:36;;;;;;;28.70;25.38;;;9.60;99.90;;;;;;5110097;27;20051;-80
2022/11/14 12:51:04;;;;;;;30.10;25.63;;;9.60;99.90;;;;;;5077474;28;20044;-81